Time;durP1;ratioP1;P1;durP2;ratioP2;P2;SDS_P1;SDS_P2;PMS_P1;PMS_P2;Temp;Humidity;BMP_temperature;BMP_pressure;BME280_temperature;BME280_humidity;BME280_pressure;Samples;Min_cycle;Max_cycle;Signal;HPM_P1;HPM_P2
2021/09/07 00:01:52;;;;;;;13.63;12.33;;;13.40;99.90;;;;;;4971882;28;20607;-78
2021/09/07 00:04:19;;;;;;;14.13;12.73;;;13.40;99.90;;;;;;4960912;28;20202;-78
2021/09/07 00:06:46;;;;;;;13.30;12.10;;;13.40;99.90;;;;;;4967500;28;20285;-79
2021/09/07 00:09:13;;;;;;;14.07;12.87;;;13.30;99.90;;;;;;4964730;28;20222;-78
2021/09/07 00:11:41;;;;;;;14.07;12.80;;;13.30;99.90;;;;;;4963033;28;20264;-78
2021/09/07 00:14:08;;;;;;;14.83;13.43;;;13.20;99.90;;;;;;4969463;28;20241;-78
2021/09/07 00:16:35;;;;;;;14.63;13.27;;;13.20;99.90;;;;;;4970774;28;20560;-78
2021/09/07 00:19:02;;;;;;;16.00;13.93;;;13.20;99.90;;;;;;4979277;28;20239;-78
2021/09/07 00:21:29;;;;;;;15.43;13.93;;;13.20;99.90;;;;;;4970815;28;20293;-79
2021/09/07 00:23:55;;;;;;;15.97;14.47;;;13.20;99.90;;;;;;4967588;28;20225;-79
2021/09/07 00:26:22;;;;;;;15.10;13.57;;;13.20;99.90;;;;;;4963513;28;20262;-78
2021/09/07 00:28:50;;;;;;;14.73;13.33;;;13.10;99.90;;;;;;4968763;28;20277;-78
2021/09/07 00:31:17;;;;;;;15.20;13.67;;;13.10;99.90;;;;;;4964854;28;20565;-78
2021/09/07 00:33:45;;;;;;;15.73;14.03;;;13.00;99.90;;;;;;4967923;28;20265;-78
2021/09/07 00:36:12;;;;;;;15.17;13.70;;;13.00;99.90;;;;;;4965889;28;20212;-79
2021/09/07 00:38:38;;;;;;;15.63;13.97;;;13.00;99.90;;;;;;4961788;28;20216;-78
2021/09/07 00:41:06;;;;;;;15.33;13.77;;;13.00;99.90;;;;;;4964744;28;20257;-78
2021/09/07 00:43:33;;;;;;;14.67;13.37;;;13.10;99.90;;;;;;4967786;28;20667;-78
2021/09/07 00:46:01;;;;;;;14.80;13.40;;;13.00;99.90;;;;;;4966305;28;20205;-78
2021/09/07 00:48:28;;;;;;;14.57;13.17;;;13.00;99.90;;;;;;4966118;28;20205;-78
2021/09/07 00:50:55;;;;;;;15.13;13.63;;;13.00;99.90;;;;;;4961677;28;20230;-78
2021/09/07 00:53:21;;;;;;;16.27;14.77;;;13.00;99.90;;;;;;4959547;28;20246;-78
2021/09/07 00:55:50;;;;;;;15.80;13.80;;;13.00;99.90;;;;;;4968686;28;20212;-78
2021/09/07 00:58:20;;;;;;;14.33;13.03;;;13.00;99.90;;;;;;4965046;28;20248;-78
2021/09/07 01:00:47;;;;;;;15.23;13.83;;;12.90;99.90;;;;;;4967253;28;20246;-78
2021/09/07 01:03:15;;;;;;;17.10;15.10;;;12.90;99.90;;;;;;4965018;28;20203;-79
2021/09/07 01:05:43;;;;;;;15.50;13.93;;;12.90;99.90;;;;;;4960838;28;20277;-78
2021/09/07 01:08:12;;;;;;;14.73;13.30;;;12.90;99.90;;;;;;4963856;28;20204;-79
2021/09/07 01:10:39;;;;;;;11.57;10.00;;;12.90;99.90;;;;;;4964765;28;20229;-78
2021/09/07 01:13:05;;;;;;;13.57;10.77;;;12.80;99.90;;;;;;4967602;28;20226;-78
2021/09/07 01:15:33;;;;;;;12.53;11.23;;;12.90;99.90;;;;;;4967843;28;20209;-79
2021/09/07 01:18:01;;;;;;;13.23;11.20;;;12.80;99.90;;;;;;4967709;28;20221;-79
2021/09/07 01:20:29;;;;;;;12.63;11.33;;;12.80;99.90;;;;;;4968381;28;20632;-77
2021/09/07 01:22:57;;;;;;;12.87;10.43;;;12.80;99.90;;;;;;4961741;28;20222;-78
2021/09/07 01:25:25;;;;;;;12.43;11.00;;;12.70;99.90;;;;;;4960769;28;20200;-78
2021/09/07 01:27:52;;;;;;;13.73;11.40;;;12.70;99.90;;;;;;4960741;28;20205;-80
2021/09/07 01:30:20;;;;;;;14.17;11.43;;;12.70;99.90;;;;;;4957681;28;20195;-79
2021/09/07 01:32:48;;;;;;;13.77;11.23;;;12.70;99.90;;;;;;4966893;28;20287;-79
2021/09/07 01:35:15;;;;;;;14.00;11.27;;;12.60;99.90;;;;;;4965379;28;20256;-79
2021/09/07 01:37:42;;;;;;;13.43;11.47;;;12.60;99.90;;;;;;4965817;28;20272;-77
2021/09/07 01:40:10;;;;;;;14.23;11.80;;;12.60;99.90;;;;;;4955874;28;20611;-79
2021/09/07 01:42:41;;;;;;;14.83;11.63;;;12.60;99.90;;;;;;4962004;28;20595;-79
2021/09/07 01:45:09;;;;;;;14.13;11.83;;;12.50;99.90;;;;;;4966843;28;20458;-79
2021/09/07 01:47:38;;;;;;;14.43;11.93;;;12.50;99.90;;;;;;4962304;28;20635;-78
2021/09/07 01:50:06;;;;;;;14.67;12.33;;;12.50;99.90;;;;;;4964004;28;20233;-77
2021/09/07 01:52:33;;;;;;;13.03;11.37;;;12.50;99.90;;;;;;4966356;28;20237;-78
2021/09/07 01:55:01;;;;;;;12.60;11.03;;;12.50;99.90;;;;;;4965416;28;20203;-79
2021/09/07 01:57:28;;;;;;;14.00;11.70;;;12.50;99.90;;;;;;4964665;28;20208;-78
2021/09/07 01:59:56;;;;;;;13.53;12.07;;;12.50;99.90;;;;;;4962120;28;20264;-79
2021/09/07 02:02:24;;;;;;;13.73;11.73;;;12.50;99.90;;;;;;4969779;28;20221;-77
2021/09/07 02:04:52;;;;;;;13.23;11.83;;;12.50;99.90;;;;;;4959639;28;20547;-79
2021/09/07 02:07:20;;;;;;;14.93;12.33;;;12.50;99.90;;;;;;4964931;28;20207;-80
2021/09/07 02:09:49;;;;;;;13.40;12.00;;;12.40;99.90;;;;;;4959324;28;20203;-78
2021/09/07 02:12:16;;;;;;;15.90;12.13;;;12.40;99.90;;;;;;4965135;28;20688;-78
2021/09/07 02:14:44;;;;;;;14.70;12.93;;;12.40;99.90;;;;;;4957955;28;20208;-78
2021/09/07 02:17:13;;;;;;;12.97;11.57;;;12.40;99.90;;;;;;4965348;28;20695;-77
2021/09/07 02:19:41;;;;;;;13.27;11.60;;;12.40;99.90;;;;;;4961224;28;20697;-78
2021/09/07 02:22:10;;;;;;;15.07;12.57;;;12.40;99.90;;;;;;4964280;28;20212;-78
2021/09/07 02:24:36;;;;;;;13.37;11.90;;;12.40;99.90;;;;;;4964401;28;20314;-80
2021/09/07 02:27:04;;;;;;;17.67;13.33;;;12.30;99.90;;;;;;4965196;28;20218;-78
2021/09/07 02:29:32;;;;;;;15.00;12.33;;;12.40;99.90;;;;;;4958205;28;20735;-78
2021/09/07 02:32:00;;;;;;;14.93;12.17;;;12.40;99.90;;;;;;4959629;28;20716;-77
2021/09/07 02:34:29;;;;;;;15.10;11.57;;;12.40;99.90;;;;;;4969892;28;20195;-77
2021/09/07 02:36:56;;;;;;;14.60;12.17;;;12.40;99.90;;;;;;4964902;28;20211;-77
2021/09/07 02:39:24;;;;;;;14.53;12.07;;;12.40;99.90;;;;;;4959232;28;20205;-78
2021/09/07 02:41:51;;;;;;;13.00;11.70;;;12.40;99.90;;;;;;4947555;28;20224;-78
2021/09/07 02:44:18;;;;;;;12.73;11.43;;;12.40;99.90;;;;;;4958651;28;20204;-78
2021/09/07 02:46:46;;;;;;;13.17;11.30;;;12.30;99.90;;;;;;4943740;28;20289;-83
2021/09/07 02:49:14;;;;;;;12.97;11.63;;;12.30;99.90;;;;;;4948652;28;20310;-77
2021/09/07 02:51:43;;;;;;;12.90;11.53;;;12.20;99.90;;;;;;4953272;28;20254;-78
2021/09/07 02:54:11;;;;;;;13.43;11.03;;;12.20;99.90;;;;;;4943559;28;20232;-77
2021/09/07 02:56:38;;;;;;;12.43;9.87;;;12.10;99.90;;;;;;4958213;28;20200;-76
2021/09/07 02:59:05;;;;;;;11.53;10.27;;;12.10;99.90;;;;;;4953959;28;21072;-75
2021/09/07 03:01:33;;;;;;;11.20;9.67;;;12.10;99.90;;;;;;4960587;28;20310;-76
2021/09/07 03:04:01;;;;;;;11.20;9.53;;;12.00;99.90;;;;;;4965107;28;20258;-76
2021/09/07 03:06:29;;;;;;;12.50;9.03;;;12.00;99.90;;;;;;4965883;28;20289;-77
2021/09/07 03:08:57;;;;;;;15.63;14.13;;;12.00;99.90;;;;;;4959527;28;20219;-77
2021/09/07 03:11:24;;;;;;;11.90;9.97;;;11.90;99.90;;;;;;4959722;28;20223;-77
2021/09/07 03:13:51;;;;;;;11.33;9.70;;;11.90;99.90;;;;;;4965589;28;20199;-76
2021/09/07 03:16:18;;;;;;;10.90;9.37;;;11.90;99.90;;;;;;4963398;28;20207;-77
2021/09/07 03:18:45;;;;;;;12.50;10.70;;;11.90;99.90;;;;;;4963111;28;20859;-77
2021/09/07 03:21:12;;;;;;;12.77;9.73;;;11.90;99.90;;;;;;4950692;28;20243;-77
2021/09/07 03:23:40;;;;;;;11.27;9.43;;;11.80;99.90;;;;;;4959648;28;20647;-77
2021/09/07 03:26:09;;;;;;;12.70;9.87;;;11.70;99.90;;;;;;4964796;28;20734;-77
2021/09/07 03:28:37;;;;;;;12.80;10.60;;;11.70;99.90;;;;;;4960687;28;20206;-76
2021/09/07 03:31:05;;;;;;;12.73;10.83;;;11.60;99.90;;;;;;4964009;28;20282;-77
2021/09/07 03:33:33;;;;;;;14.27;10.53;;;11.60;99.90;;;;;;4964550;28;20281;-77
2021/09/07 03:36:00;;;;;;;11.93;10.27;;;11.50;99.90;;;;;;4963060;28;20676;-76
2021/09/07 03:38:27;;;;;;;11.00;9.23;;;11.60;99.90;;;;;;4961327;28;20195;-77
2021/09/07 03:40:54;;;;;;;11.93;9.70;;;11.50;99.90;;;;;;4966744;28;20221;-76
2021/09/07 03:43:24;;;;;;;13.07;10.37;;;11.50;99.90;;;;;;4965708;28;20694;-77
2021/09/07 03:45:50;;;;;;;13.57;11.63;;;11.40;99.90;;;;;;4950956;28;20190;-76
2021/09/07 03:48:18;;;;;;;12.93;10.70;;;11.40;99.90;;;;;;4961189;28;20194;-78
2021/09/07 03:50:45;;;;;;;12.77;10.50;;;11.30;99.90;;;;;;4962605;28;20202;-77
2021/09/07 03:53:11;;;;;;;15.27;10.97;;;11.30;99.90;;;;;;4965706;28;20282;-77
2021/09/07 03:55:39;;;;;;;13.83;10.37;;;11.30;99.90;;;;;;4967591;28;20191;-77
2021/09/07 03:58:07;;;;;;;13.90;10.83;;;11.30;99.90;;;;;;4964347;28;20195;-76
2021/09/07 04:00:37;;;;;;;12.17;10.83;;;11.30;99.90;;;;;;4965988;28;20236;-77
2021/09/07 04:03:13;;;;;;;12.70;10.73;;;11.30;99.90;;;;;;4964221;28;20221;-77
2021/09/07 04:05:41;;;;;;;12.20;10.20;;;11.30;99.90;;;;;;4959854;28;20205;-77
2021/09/07 04:08:07;;;;;;;11.53;10.23;;;11.30;99.90;;;;;;4959209;28;20715;-77
2021/09/07 04:10:36;;;;;;;10.90;9.67;;;11.30;99.90;;;;;;4959527;28;20198;-77
2021/09/07 04:13:03;;;;;;;11.00;9.27;;;11.30;99.90;;;;;;4961570;28;20301;-80
2021/09/07 04:15:30;;;;;;;11.73;9.37;;;11.30;99.90;;;;;;4955249;28;20199;-81
2021/09/07 04:17:59;;;;;;;12.97;10.83;;;11.30;99.90;;;;;;4961192;28;20238;-76
2021/09/07 04:20:26;;;;;;;12.73;9.97;;;11.30;99.90;;;;;;4960182;28;20216;-76
2021/09/07 04:22:53;;;;;;;11.23;9.83;;;11.30;99.90;;;;;;4967263;28;20218;-76
2021/09/07 04:25:20;;;;;;;12.30;9.80;;;11.20;99.90;;;;;;4962422;28;20202;-77
2021/09/07 04:27:47;;;;;;;13.90;10.90;;;11.30;99.90;;;;;;4962108;28;20211;-75
2021/09/07 04:30:14;;;;;;;11.80;10.27;;;11.30;99.90;;;;;;4965348;28;20207;-77
2021/09/07 04:32:41;;;;;;;11.90;9.50;;;11.30;99.90;;;;;;4956867;28;20225;-77
2021/09/07 04:35:10;;;;;;;12.67;10.33;;;11.20;99.90;;;;;;4959396;28;20207;-78
2021/09/07 04:37:36;;;;;;;10.90;9.30;;;11.20;99.90;;;;;;4963727;28;20199;-77
2021/09/07 04:40:04;;;;;;;11.77;9.73;;;11.20;99.90;;;;;;4955774;28;20708;-82
2021/09/07 04:42:31;;;;;;;12.37;10.83;;;11.20;99.90;;;;;;4948622;28;20226;-81
2021/09/07 04:44:58;;;;;;;12.00;9.97;;;11.10;99.90;;;;;;4949561;28;20638;-80
2021/09/07 04:47:25;;;;;;;11.70;9.97;;;11.20;99.90;;;;;;4950703;28;20203;-79
2021/09/07 04:49:52;;;;;;;12.27;10.63;;;11.20;99.90;;;;;;4945060;28;20212;-79
2021/09/07 04:52:20;;;;;;;12.57;9.37;;;11.20;99.90;;;;;;4953257;28;20238;-81
2021/09/07 04:54:47;;;;;;;12.83;10.90;;;11.20;99.90;;;;;;4953612;28;20214;-81
2021/09/07 04:57:14;;;;;;;13.63;10.90;;;11.20;99.90;;;;;;4962410;28;20556;-83
2021/09/07 04:59:40;;;;;;;11.63;10.13;;;11.20;99.90;;;;;;4960440;28;20203;-79
2021/09/07 05:02:07;;;;;;;16.13;11.50;;;11.20;99.90;;;;;;4966848;28;20230;-83
2021/09/07 05:04:34;;;;;;;12.67;9.60;;;11.20;99.90;;;;;;4953086;28;20589;-79
2021/09/07 05:07:01;;;;;;;14.17;10.63;;;11.30;99.90;;;;;;4969349;28;20201;-77
2021/09/07 05:09:29;;;;;;;15.77;11.10;;;11.30;99.90;;;;;;4964150;28;20268;-77
2021/09/07 05:11:56;;;;;;;14.07;10.53;;;11.30;99.90;;;;;;4962450;28;20224;-77
2021/09/07 05:14:23;;;;;;;11.60;10.23;;;11.30;99.90;;;;;;4964880;28;20202;-76
2021/09/07 05:16:50;;;;;;;11.67;9.70;;;11.30;99.90;;;;;;4958075;28;20210;-76
2021/09/07 05:19:17;;;;;;;12.70;10.10;;;11.50;99.90;;;;;;4950963;28;20209;-78
2021/09/07 05:21:44;;;;;;;11.83;9.23;;;11.50;99.90;;;;;;4964586;28;20281;-80
2021/09/07 05:24:11;;;;;;;14.67;11.27;;;11.60;99.90;;;;;;4963781;28;20201;-78
2021/09/07 05:26:39;;;;;;;14.93;11.60;;;11.70;99.90;;;;;;4965959;28;20631;-81
2021/09/07 05:29:06;;;;;;;15.07;12.33;;;11.70;99.90;;;;;;4962885;28;20202;-79
2021/09/07 05:31:33;;;;;;;15.63;12.50;;;11.80;99.90;;;;;;4958370;28;20262;-79
2021/09/07 05:34:00;;;;;;;17.83;12.47;;;11.90;99.90;;;;;;4965229;28;20289;-80
2021/09/07 05:36:27;;;;;;;13.83;12.40;;;12.00;99.90;;;;;;4960122;28;20297;-79
2021/09/07 05:38:53;;;;;;;13.50;10.80;;;12.10;99.90;;;;;;4966152;28;20207;-79
2021/09/07 05:41:20;;;;;;;13.30;10.70;;;12.20;99.90;;;;;;4953632;28;20233;-79
2021/09/07 05:43:48;;;;;;;14.40;11.53;;;12.30;99.90;;;;;;4942993;28;20207;-80
2021/09/07 05:46:15;;;;;;;13.47;10.30;;;12.40;99.90;;;;;;4941673;28;20227;-80
2021/09/07 05:48:42;;;;;;;11.40;10.20;;;12.50;99.90;;;;;;4946093;28;20212;-79
2021/09/07 05:53:46;;;;;;;11.07;9.93;;;12.70;99.90;;;;;;4970267;28;20206;-81
2021/09/07 05:56:15;;;;;;;12.37;10.00;;;12.80;99.90;;;;;;4973421;28;20243;-80
2021/09/07 05:58:42;;;;;;;12.00;10.70;;;12.90;99.90;;;;;;4962234;28;20269;-81
2021/09/07 06:01:10;;;;;;;11.13;9.70;;;12.90;99.90;;;;;;4974919;28;20208;-81
2021/09/07 06:03:37;;;;;;;9.57;8.57;;;13.00;99.90;;;;;;4956457;28;20291;-81
2021/09/07 06:06:03;;;;;;;10.40;9.30;;;13.10;99.90;;;;;;4950103;29;20621;-82
2021/09/07 06:08:30;;;;;;;13.70;10.90;;;13.10;99.90;;;;;;4951545;28;20205;-78
2021/09/07 06:10:57;;;;;;;12.50;10.10;;;13.20;99.90;;;;;;4953709;29;20583;-79
2021/09/07 06:13:24;;;;;;;12.03;10.03;;;13.30;99.90;;;;;;4952113;28;20283;-79
2021/09/07 06:15:51;;;;;;;11.70;10.37;;;13.40;99.90;;;;;;4949862;29;20750;-79
2021/09/07 06:18:19;;;;;;;12.20;10.87;;;13.50;99.90;;;;;;4954559;29;20277;-79
2021/09/07 06:20:46;;;;;;;12.70;11.40;;;13.60;99.90;;;;;;4953048;29;20217;-79
2021/09/07 06:23:13;;;;;;;13.43;11.90;;;13.60;99.90;;;;;;4957366;28;20217;-79
2021/09/07 06:25:40;;;;;;;12.40;10.70;;;13.60;99.90;;;;;;4951020;29;20209;-79
2021/09/07 06:28:07;;;;;;;12.03;10.83;;;13.70;99.90;;;;;;4947833;29;20206;-79
2021/09/07 06:30:34;;;;;;;12.10;10.77;;;13.80;99.90;;;;;;4955352;29;20257;-78
2021/09/07 06:33:00;;;;;;;11.83;10.63;;;13.80;99.90;;;;;;4953576;28;20715;-78
2021/09/07 06:35:29;;;;;;;12.03;10.47;;;13.90;99.90;;;;;;4954211;28;20317;-79
2021/09/07 06:37:56;;;;;;;13.40;10.83;;;13.90;99.90;;;;;;4952000;29;20213;-78
2021/09/07 06:40:24;;;;;;;14.53;10.43;;;14.00;99.90;;;;;;4951500;29;20198;-79
2021/09/07 06:42:51;;;;;;;11.30;9.60;;;14.00;99.90;;;;;;4946695;29;20224;-79
2021/09/07 06:45:18;;;;;;;11.93;9.80;;;14.10;99.90;;;;;;4952606;29;20253;-79
2021/09/07 06:47:44;;;;;;;12.00;10.67;;;14.10;99.90;;;;;;4957671;28;20210;-78
2021/09/07 06:50:12;;;;;;;11.67;10.47;;;14.20;99.90;;;;;;4954546;29;20253;-79
2021/09/07 06:52:40;;;;;;;11.37;10.17;;;14.30;99.90;;;;;;4953235;29;20769;-78
2021/09/07 06:55:08;;;;;;;11.53;10.23;;;14.40;99.90;;;;;;4956011;29;20203;-78
2021/09/07 06:57:35;;;;;;;12.50;11.03;;;14.50;99.90;;;;;;4951873;29;20234;-78
2021/09/07 07:00:04;;;;;;;12.63;10.33;;;14.60;99.90;;;;;;4957998;29;20221;-79
2021/09/07 07:02:31;;;;;;;12.10;10.27;;;14.60;99.90;;;;;;4956322;28;20254;-79
2021/09/07 07:04:58;;;;;;;11.17;9.97;;;14.70;99.90;;;;;;4952800;29;20190;-79
2021/09/07 07:07:25;;;;;;;11.60;9.33;;;14.70;99.90;;;;;;4956845;28;20203;-79
2021/09/07 07:09:53;;;;;;;10.83;9.37;;;14.80;99.90;;;;;;4948388;29;20203;-79
2021/09/07 07:12:20;;;;;;;10.43;9.33;;;14.90;99.90;;;;;;4956888;28;20556;-79
2021/09/07 07:14:47;;;;;;;10.90;9.70;;;15.00;99.90;;;;;;4946529;29;20258;-79
2021/09/07 07:17:14;;;;;;;11.83;9.60;;;15.20;99.90;;;;;;4949331;29;20680;-79
2021/09/07 07:19:40;;;;;;;10.80;9.33;;;15.30;99.90;;;;;;4952372;28;20211;-79
2021/09/07 07:22:07;;;;;;;11.23;9.57;;;15.50;99.90;;;;;;4953836;28;20713;-79
2021/09/07 07:24:34;;;;;;;12.30;8.97;;;15.60;99.90;;;;;;4953971;29;20219;-78
2021/09/07 07:27:03;;;;;;;11.17;8.80;;;15.80;99.90;;;;;;4950645;29;20470;-79
2021/09/07 07:29:30;;;;;;;11.60;9.83;;;16.00;99.90;;;;;;4952778;29;20721;-79
2021/09/07 07:31:57;;;;;;;11.83;10.60;;;16.40;99.90;;;;;;4956455;28;20273;-79
2021/09/07 07:34:24;;;;;;;15.73;14.33;;;16.90;99.90;;;;;;4951640;29;20214;-78
2021/09/07 07:36:54;;;;;;;15.27;13.97;;;17.30;99.90;;;;;;4954164;29;20205;-79
2021/09/07 07:39:21;;;;;;;16.83;15.33;;;17.50;99.90;;;;;;4950531;29;20213;-79
2021/09/07 07:41:48;;;;;;;17.63;16.00;;;17.80;99.90;;;;;;4954254;28;20250;-79
2021/09/07 07:44:16;;;;;;;18.43;15.17;;;18.00;99.90;;;;;;4950895;29;20210;-79
2021/09/07 07:46:43;;;;;;;16.93;15.43;;;18.20;99.90;;;;;;4952177;29;20234;-79
2021/09/07 07:49:10;;;;;;;16.50;15.10;;;18.40;99.90;;;;;;4955454;28;20291;-79
2021/09/07 07:51:37;;;;;;;15.03;13.67;;;18.70;99.90;;;;;;4949231;28;20195;-79
2021/09/07 07:54:07;;;;;;;17.17;15.73;;;19.00;99.90;;;;;;4954587;29;20265;-78
2021/09/07 07:56:34;;;;;;;16.20;14.77;;;19.30;99.90;;;;;;4948817;29;20207;-79
2021/09/07 07:59:01;;;;;;;17.13;15.63;;;19.50;99.90;;;;;;4952226;29;20228;-79
2021/09/07 08:01:30;;;;;;;16.93;15.50;;;19.40;99.90;;;;;;4956334;28;20235;-79
2021/09/07 08:03:56;;;;;;;16.60;15.20;;;19.30;99.90;;;;;;4956706;29;20208;-79
2021/09/07 08:06:23;;;;;;;16.23;14.93;;;19.50;99.90;;;;;;4953340;29;20212;-80
2021/09/07 08:08:50;;;;;;;16.83;15.27;;;19.60;99.90;;;;;;4950108;28;20563;-79
2021/09/07 08:11:18;;;;;;;16.30;14.90;;;19.90;99.90;;;;;;4948351;29;20201;-79
2021/09/07 08:13:45;;;;;;;16.97;15.57;;;20.20;99.90;;;;;;4953185;28;20717;-79
2021/09/07 08:16:12;;;;;;;16.63;15.23;;;20.60;99.90;;;;;;4950313;29;20202;-79
2021/09/07 08:18:40;;;;;;;15.50;14.20;;;20.80;99.90;;;;;;4945606;28;20232;-79
2021/09/07 08:21:07;;;;;;;14.27;13.03;;;21.00;99.90;;;;;;4948806;29;20258;-78
2021/09/07 08:23:34;;;;;;;14.83;13.43;;;21.30;99.90;;;;;;4951168;28;20230;-80
2021/09/07 08:26:01;;;;;;;14.77;13.63;;;21.30;99.90;;;;;;4949997;29;20206;-79
2021/09/07 08:28:28;;;;;;;14.53;13.03;;;21.70;99.90;;;;;;4951453;29;20222;-79
2021/09/07 08:30:54;;;;;;;15.20;13.80;;;21.70;99.90;;;;;;4953472;29;20702;-79
2021/09/07 08:33:21;;;;;;;16.50;14.87;;;21.90;99.90;;;;;;4955980;28;20579;-79
2021/09/07 08:35:50;;;;;;;16.10;14.50;;;22.00;99.90;;;;;;4957901;28;20210;-80
2021/09/07 08:38:18;;;;;;;16.70;15.03;;;22.30;99.90;;;;;;4957614;29;20194;-79
2021/09/07 08:40:46;;;;;;;15.70;14.30;;;22.60;99.90;;;;;;4957808;29;20202;-81
2021/09/07 08:43:13;;;;;;;16.17;14.77;;;22.70;99.90;;;;;;4955386;28;20298;-77
2021/09/07 08:45:41;;;;;;;15.97;14.53;;;22.70;99.90;;;;;;4952186;29;20246;-79
2021/09/07 08:48:08;;;;;;;14.63;13.33;;;22.80;99.90;;;;;;4957578;29;20232;-80
2021/09/07 08:50:35;;;;;;;15.03;13.83;;;23.10;99.90;;;;;;4957960;29;20726;-80
2021/09/07 08:53:04;;;;;;;15.97;14.43;;;23.10;99.90;;;;;;4958795;28;20218;-80
2021/09/07 08:55:31;;;;;;;15.23;13.83;;;23.30;99.90;;;;;;4953052;29;20222;-80
2021/09/07 08:57:58;;;;;;;15.70;14.30;;;23.30;99.90;;;;;;4957579;29;20203;-80
2021/09/07 09:00:27;;;;;;;14.60;13.20;;;23.40;99.90;;;;;;4953259;29;20210;-80
2021/09/07 09:02:54;;;;;;;14.27;12.90;;;23.70;99.90;;;;;;4956778;28;20321;-81
2021/09/07 09:05:27;;;;;;;15.07;13.73;;;24.00;99.90;;;;;;4961164;29;20207;-80
2021/09/07 09:07:54;;;;;;;14.97;13.57;;;24.10;99.90;;;;;;4955741;29;20225;-79
2021/09/07 09:10:24;;;;;;;15.30;13.90;;;24.20;99.90;;;;;;4957584;28;20203;-80
2021/09/07 09:13:03;;;;;;;14.33;13.23;;;24.40;99.90;;;;;;4953483;28;20281;-81
2021/09/07 09:15:30;;;;;;;15.03;13.60;;;24.60;99.90;;;;;;4957731;29;20194;-80
2021/09/07 09:18:04;;;;;;;15.17;13.83;;;24.70;99.90;;;;;;4958861;29;20198;-79
2021/09/07 09:20:31;;;;;;;14.90;13.70;;;24.60;99.90;;;;;;4960922;29;20207;-81
2021/09/07 09:23:00;;;;;;;15.00;13.70;;;24.60;99.90;;;;;;4962160;28;20290;-80
2021/09/07 09:25:31;;;;;;;15.23;13.93;;;24.60;99.90;;;;;;4961819;29;20201;-79
2021/09/07 09:28:10;;;;;;;14.10;12.90;;;24.90;99.90;;;;;;4958880;29;20679;-80
2021/09/07 09:30:39;;;;;;;15.03;13.63;;;25.00;99.90;;;;;;4959888;28;20687;-79
2021/09/07 09:33:07;;;;;;;15.53;14.13;;;25.20;99.90;;;;;;4962405;28;20214;-79
2021/09/07 09:35:45;;;;;;;16.07;14.67;;;25.20;99.90;;;;;;4961542;29;20207;-79
2021/09/07 09:38:12;;;;;;;16.13;14.63;;;25.10;99.90;;;;;;4961588;28;20695;-80
2021/09/07 09:40:40;;;;;;;14.67;13.47;;;25.10;99.90;;;;;;4962696;29;20194;-79
2021/09/07 09:43:25;;;;;;;16.20;14.70;;;25.30;99.90;;;;;;4959487;28;20247;-79
2021/09/07 09:45:53;;;;;;;14.47;13.30;;;25.50;99.90;;;;;;4964322;29;20199;-80
2021/09/07 09:48:26;;;;;;;8.60;7.33;;;25.80;99.90;;;;;;4965250;29;20202;-80
2021/09/07 09:50:55;;;;;;;11.63;10.50;;;26.00;99.90;;;;;;4981336;28;20202;-79
2021/09/07 09:53:22;;;;;;;12.67;11.33;;;26.00;99.90;;;;;;4959910;28;20214;-83
2021/09/07 09:55:53;;;;;;;15.40;13.90;;;25.50;99.90;;;;;;4954253;29;20210;-77
2021/09/07 09:58:23;;;;;;;14.30;13.13;;;25.40;99.90;;;;;;4957152;29;20754;-77
2021/09/07 10:00:51;;;;;;;13.70;12.60;;;25.10;99.90;;;;;;4954515;28;20293;-76
2021/09/07 10:03:19;;;;;;;13.80;12.70;;;25.40;99.90;;;;;;4941299;29;20211;-77
2021/09/07 10:05:47;;;;;;;14.13;12.70;;;25.40;99.90;;;;;;4950622;29;20294;-77
2021/09/07 10:08:17;;;;;;;13.63;12.57;;;25.30;99.90;;;;;;4954852;29;20243;-77
2021/09/07 10:10:53;;;;;;;13.63;12.53;;;25.20;99.90;;;;;;4953747;28;20198;-77
2021/09/07 10:13:22;;;;;;;14.00;12.80;;;25.30;99.90;;;;;;4954195;28;20211;-77
2021/09/07 10:15:53;;;;;;;10.30;9.30;;;25.20;99.90;;;;;;4958227;28;20203;-77
2021/09/07 10:18:34;;;;;;;8.67;7.60;;;25.20;99.90;;;;;;4959805;29;20682;-78
2021/09/07 10:21:16;;;;;;;9.13;7.37;;;25.20;99.90;;;;;;4960783;29;20238;-77
2021/09/07 10:23:53;;;;;;;8.70;7.73;;;25.10;99.90;;;;;;4960590;28;20219;-77
2021/09/07 10:26:53;;;;;;;13.43;7.50;;;25.00;99.90;;;;;;4958994;29;20221;-77
2021/09/07 10:29:42;;;;;;;7.73;7.03;;;24.70;99.90;;;;;;4959636;29;20206;-78
2021/09/07 10:32:30;;;;;;;10.40;8.10;;;24.70;99.90;;;;;;4958041;28;20213;-77
2021/09/07 10:35:09;;;;;;;9.57;7.27;;;24.60;99.90;;;;;;4948135;29;20198;-77
2021/09/07 10:38:11;;;;;;;8.07;7.07;;;24.40;99.90;;;;;;4949068;28;20214;-81
2021/09/07 10:40:55;;;;;;;9.67;8.17;;;24.40;99.90;;;;;;4968459;28;20209;-76
2021/09/07 10:44:02;;;;;;;8.10;7.07;;;24.30;99.90;;;;;;4947294;29;20657;-77
2021/09/07 10:46:45;;;;;;;8.87;6.80;;;24.30;99.90;;;;;;4941283;28;20216;-77
2021/09/07 10:49:21;;;;;;;9.27;7.57;;;24.40;99.90;;;;;;4949348;29;20195;-77
2021/09/07 10:52:22;;;;;;;9.47;7.20;;;24.30;99.90;;;;;;4949529;28;20324;-77
2021/09/07 10:54:54;;;;;;;9.40;8.50;;;24.20;99.90;;;;;;4951076;28;20245;-76
2021/09/07 10:57:57;;;;;;;10.07;9.07;;;24.20;99.90;;;;;;4948912;29;20250;-77
2021/09/07 11:00:35;;;;;;;10.13;9.10;;;24.30;99.90;;;;;;4950707;29;20198;-77
2021/09/07 11:03:06;;;;;;;10.87;9.40;;;24.40;99.90;;;;;;4966954;28;20233;-77
2021/09/07 11:05:45;;;;;;;10.47;8.00;;;24.30;99.90;;;;;;4952486;28;20245;-76
2021/09/07 11:08:14;;;;;;;8.90;8.00;;;24.20;99.90;;;;;;4949234;29;20294;-77
2021/09/07 11:10:43;;;;;;;9.07;8.17;;;24.30;99.90;;;;;;4951292;28;20195;-77
2021/09/07 11:13:35;;;;;;;9.00;7.90;;;24.30;99.90;;;;;;4949191;28;20347;-77
2021/09/07 11:16:03;;;;;;;10.00;9.00;;;24.20;99.90;;;;;;4954481;29;20207;-77
2021/09/07 11:18:32;;;;;;;10.20;8.27;;;24.30;99.90;;;;;;4954113;29;20215;-77
2021/09/07 11:21:01;;;;;;;11.53;9.03;;;24.30;99.90;;;;;;4951566;29;20586;-79
2021/09/07 11:23:30;;;;;;;9.40;8.50;;;24.40;99.90;;;;;;4955465;28;20222;-77
2021/09/07 11:26:00;;;;;;;9.30;8.13;;;24.30;99.90;;;;;;4949971;29;20302;-78
2021/09/07 11:28:27;;;;;;;9.63;8.60;;;24.20;99.90;;;;;;4951463;29;20285;-78
2021/09/07 11:30:54;;;;;;;17.43;8.80;;;24.30;99.90;;;;;;4954642;29;20226;-78
2021/09/07 11:33:23;;;;;;;8.93;7.97;;;24.30;99.90;;;;;;4951892;28;20221;-78
2021/09/07 11:35:53;;;;;;;9.53;8.63;;;24.40;99.90;;;;;;4953421;29;20225;-78
2021/09/07 11:38:22;;;;;;;9.13;8.23;;;24.40;99.90;;;;;;4950531;29;20342;-78
2021/09/07 11:40:51;;;;;;;9.60;8.60;;;24.50;99.90;;;;;;4953774;28;20567;-80
2021/09/07 11:43:29;;;;;;;9.53;8.63;;;24.50;99.90;;;;;;4950637;28;20770;-82
2021/09/07 11:46:05;;;;;;;10.00;9.00;;;24.60;99.90;;;;;;4957874;28;20206;-81
2021/09/07 11:48:32;;;;;;;10.70;8.33;;;24.60;99.90;;;;;;4943851;29;20259;-81
2021/09/07 11:51:00;;;;;;;9.00;8.00;;;24.40;99.90;;;;;;4950156;29;20194;-81
2021/09/07 11:53:27;;;;;;;8.43;7.57;;;24.50;99.90;;;;;;4985070;23;20229;-82
2021/09/07 11:55:55;;;;;;;8.23;6.90;;;24.40;99.90;;;;;;4966349;28;20214;-81
2021/09/07 11:58:28;;;;;;;7.50;6.67;;;24.40;99.90;;;;;;4959946;28;20210;-81
2021/09/07 12:01:06;;;;;;;8.60;7.00;;;24.50;99.90;;;;;;4955154;28;20222;-81
2021/09/07 12:03:42;;;;;;;9.47;7.67;;;24.50;99.90;;;;;;4966134;28;20233;-78
2021/09/07 12:06:12;;;;;;;8.43;7.17;;;24.60;99.90;;;;;;4967687;28;20198;-79
2021/09/07 12:08:41;;;;;;;8.43;7.07;;;24.70;99.90;;;;;;4972525;28;20639;-79
2021/09/07 12:11:10;;;;;;;7.90;6.77;;;24.70;99.90;;;;;;4975659;28;20205;-85
2021/09/07 12:13:38;;;;;;;8.10;6.87;;;24.80;99.90;;;;;;4967450;28;20214;-83
2021/09/07 12:16:06;;;;;;;7.87;7.03;;;24.60;99.90;;;;;;4979078;28;20202;-85
2021/09/07 12:18:43;;;;;;;8.60;7.20;;;24.70;99.90;;;;;;4975058;28;20202;-83
2021/09/07 12:21:21;;;;;;;9.07;6.87;;;24.60;99.90;;;;;;4976522;28;20295;-85
2021/09/07 12:23:49;;;;;;;7.50;6.70;;;24.60;99.90;;;;;;4977903;28;20578;-85
2021/09/07 12:26:16;;;;;;;8.60;7.57;;;24.60;99.90;;;;;;4978877;28;20206;-84
2021/09/07 12:28:44;;;;;;;8.60;7.37;;;24.50;99.90;;;;;;4971016;28;20205;-82
2021/09/07 12:31:22;;;;;;;8.30;7.40;;;24.60;99.90;;;;;;4970047;28;20237;-82
2021/09/07 12:33:52;;;;;;;8.57;7.67;;;24.60;99.90;;;;;;4971724;28;20230;-80
2021/09/07 12:36:22;;;;;;;9.53;7.37;;;24.70;99.90;;;;;;4972363;28;20588;-85
2021/09/07 12:38:51;;;;;;;8.07;7.33;;;24.80;99.90;;;;;;4969688;28;20193;-85
2021/09/07 12:41:21;;;;;;;8.07;7.37;;;24.80;99.90;;;;;;4976682;28;20216;-85
2021/09/07 12:43:53;;;;;;;8.07;7.27;;;24.70;99.90;;;;;;4974941;28;20225;-87